Lapis Arrow — C6VH5 — position and weather

sailwx.info

Track history (hours):
 
Tides and Currents Weather Stations Pressure Air Temp Water Temp Dewpoint Dewpoint Depression Visibility Wind Speed Wind Dir Waves Ship Positions

Lapis Arrow

Last reported at 2018-Apr-24 23:55 UTC. Time now 2018-Apr-26 07:41 UTC.
Position N 37°44' E 024°18'.

Length 176 m; draft 7.3 m.

Type: Cargo ship. MMSI: 308800800.

Date/timePositionNaut miles runAvg speedWind from/ knotsBaromVisibWave heightAir tempDewpointWater temp
2018-Apr-24 23:55N 37°44' E 024°18'919.0
2018-Apr-24 23:28N 37°37' E 024°12'3818.8
2018-Apr-24 21:28N 37°05' E 023°47'36217.8
2018-Apr-24 01:06N 36°28' E 016°17'219.5
2018-Apr-24 01:00N 36°28' E 016°15'1019.4
2018-Apr-24 00:28N 36°29' E 016°02'919.5
2018-Apr-24 00:00N 36°29' E 015°50'1019.2
2018-Apr-23 23:28N 36°29' E 015°37'918.8
2018-Apr-23 23:01N 36°28' E 015°27'1018.8
2018-Apr-23 22:30N 36°31' E 015°15'1019.5
2018-Apr-23 22:00N 36°32' E 015°03'1019.7
2018-Apr-23 21:31N 36°34' E 014°51'1019.6
2018-Apr-23 20:59N 36°36' E 014°39'1020.1
2018-Apr-23 20:28N 36°40' E 014°27'919.8
2018-Apr-23 20:01N 36°42' E 014°16'1019.5
2018-Apr-23 19:30N 36°45' E 014°04'1019.7
2018-Apr-23 19:00N 36°47' E 013°52'919.4
2018-Apr-23 18:30N 36°49' E 013°40'1019.0
2018-Apr-23 18:00N 36°51' E 013°29'1018.9
2018-Apr-23 17:30N 36°53' E 013°17'918.8
2018-Apr-23 17:00N 36°55' E 013°06'1019.0
2018-Apr-23 16:30N 36°57' E 012°54'919.1
2018-Apr-23 16:00N 36°59' E 012°42'919.1
2018-Apr-23 15:31N 37°01' E 012°31'1019.3
2018-Apr-23 15:00N 37°03' E 012°19'84318.4
2018-Apr-21 17:12N 35°59' W 005°08'418.9
2018-Apr-21 17:00N 35°59' W 005°12'919.1
2018-Apr-21 16:30N 35°58' W 005°24'26115.3
2018-Apr-20 23:27N 38°18' W 009°59'818.0
2018-Apr-20 23:00N 38°26' W 010°02'918.5
2018-Apr-20 22:30N 38°35' W 010°05'918.3
2018-Apr-20 22:00N 38°44' W 010°07'918.6
2018-Apr-20 21:30N 38°53' W 010°06'918.7
2018-Apr-20 21:00N 39°03' W 010°06'1019.0
2018-Apr-20 20:30N 39°12' W 010°06'54318.0
2018-Apr-19 14:20N 47°53' W 006°36'1018.0
2018-Apr-19 13:48N 48°02' W 006°29'5819.3
2018-Apr-19 10:48N 48°53' W 005°49'1918.8
2018-Apr-19 09:48N 49°04' W 005°26'1816.5
2018-Apr-19 08:42N 49°16' W 005°04'813.5
2018-Apr-19 08:07N 49°20' W 004°55'214.8
2018-Apr-19 07:58N 49°22' W 004°52'1215.8
2018-Apr-19 07:11N 49°29' W 004°37'315.6
2018-Apr-19 07:00N 49°31' W 004°34'815.7
2018-Apr-19 06:30N 49°36' W 004°25'815.9
2018-Apr-19 06:00N 49°42' W 004°16'816.5
2018-Apr-19 05:30N 49°47' W 004°06'917.2
2018-Apr-19 05:00N 49°53' W 003°56'918.1
2018-Apr-19 04:30N 49°59' W 003°45'1019.2
2018-Apr-19 04:00N 50°04' W 003°34'1019.2
2018-Apr-19 03:30N 50°13' W 003°27'1019.6
2018-Apr-19 03:00N 50°23' W 003°28'611.2
2018-Apr-19 02:30N 50°25' W 003°20'917.3
2018-Apr-19 02:00N 50°25' W 003°06'1019.2
2018-Apr-19 01:30N 50°25' W 002°51'918.8
2018-Apr-19 01:00N 50°25' W 002°36'917.8
2018-Apr-19 00:30N 50°25' W 002°22'1216.9
2018-Apr-18 23:48N 50°26' W 002°04'516.3
2018-Apr-18 23:30N 50°26' W 001°56'815.5
2018-Apr-18 23:00N 50°26' W 001°44'815.1
2018-Apr-18 22:30N 50°27' W 001°32'714.6
2018-Apr-18 22:00N 50°28' W 001°21'714.1
2018-Apr-18 21:30N 50°28' W 001°10'714.3
2018-Apr-18 21:00N 50°29' W 000°58'714.9
2018-Apr-18 20:30N 50°29' W 000°47'816.8
2018-Apr-18 20:00N 50°30' W 000°34'918.2
2018-Apr-18 19:30N 50°31' W 000°19'1019.3
2018-Apr-18 19:00N 50°31' W 000°04'1019.9
2018-Apr-18 18:30N 50°33' E 000°11'1020.4
2018-Apr-18 18:00N 50°36' E 000°27'1020.4
2018-Apr-18 17:30N 50°40' E 000°41'1020.0
2018-Apr-18 17:00N 50°45' E 000°55'1019.2
2018-Apr-18 16:28N 50°51' E 001°08'818.3
2018-Apr-18 16:00N 50°56' E 001°19'917.3
2018-Apr-18 15:30N 51°02' E 001°28'816.1
2018-Apr-18 15:00N 51°08' E 001°37'815.8
2018-Apr-18 14:30N 51°14' E 001°45'816.4
2018-Apr-18 14:00N 51°21' E 001°52'917.1
2018-Apr-18 13:30N 51°28' E 001°60'917.8
2018-Apr-18 13:00N 51°35' E 002°09'918.3
2018-Apr-18 12:30N 51°42' E 002°19'1019.2
2018-Apr-18 12:00N 51°49' E 002°29'1019.8
2018-Apr-18 11:30N 51°56' E 002°40'2320.1
2018-Apr-18 10:23N 52°14' E 003°02'920.1
2018-Apr-18 09:57N 52°21' E 003°11'3119.5
2018-Apr-18 08:21N 52°46' E 003°42'618.4
2018-Apr-18 08:00N 52°51' E 003°49'917.8
2018-Apr-18 07:30N 52°57' E 003°60'917.5
2018-Apr-18 07:00N 53°03' E 004°10'917.3
2018-Apr-18 06:30N 53°09' E 004°21'916.7
2018-Apr-18 05:59N 53°17' E 004°27'816.8
2018-Apr-18 05:30N 53°24' E 004°32'715.0
2018-Apr-18 05:00N 53°29' E 004°41'917.9
2018-Apr-18 04:30N 53°33' E 004°55'5216.7
2018-Apr-18 01:22N 53°37' E 006°23'617.6
2018-Apr-18 01:00N 53°37' E 006°34'918.1
2018-Apr-18 00:30N 53°31' E 006°46'816.2
2018-Apr-18 00:00N 53°26' E 006°56'714.2
2018-Apr-17 23:30N 53°19' E 007°01'510.9
2018-Apr-17 23:00N 53°20' E 007°10'0 0.5
2018-Apr-17 22:29N 53°20' E 007°11'0 0.0
2018-Apr-17 21:59N 53°20' E 007°11'0 0.0
2018-Apr-17 21:30N 53°20' E 007°11'0 0.0
2018-Apr-17 20:59N 53°20' E 007°11'0 0.0
2018-Apr-17 20:29N 53°20' E 007°11'0 0.0
2018-Apr-17 19:59N 53°20' E 007°11'0 0.0
2018-Apr-17 19:28N 53°20' E 007°11'0 0.0
2018-Apr-17 18:56N 53°20' E 007°11'0 0.0
2018-Apr-17 18:30N 53°20' E 007°11'0 0.0
2018-Apr-17 18:00N 53°20' E 007°11'0 0.0
2018-Apr-17 17:27N 53°20' E 007°11'0 0.0
2018-Apr-17 16:58N 53°20' E 007°11'0 0.0
2018-Apr-17 16:30N 53°20' E 007°11'0 0.0
2018-Apr-17 16:00N 53°20' E 007°11'0 0.0
2018-Apr-17 15:28N 53°20' E 007°11'0 0.0
2018-Apr-17 14:58N 53°20' E 007°11'0 0.0
2018-Apr-17 14:30N 53°20' E 007°11'0 0.0
2018-Apr-17 13:58N 53°20' E 007°11'0 0.0
2018-Apr-17 13:28N 53°20' E 007°11'0 0.0
2018-Apr-17 12:54N 53°20' E 007°11'0 0.0
2018-Apr-17 12:29N 53°20' E 007°11'0 0.0
2018-Apr-17 11:59N 53°20' E 007°11'0 0.0
2018-Apr-17 11:26N 53°20' E 007°11'0 0.0
2018-Apr-17 10:58N 53°20' E 007°11'0 0.0
2018-Apr-17 10:25N 53°20' E 007°11'0 0.0
2018-Apr-17 09:58N 53°20' E 007°11'0 0.0
2018-Apr-17 09:28N 53°20' E 007°11'0 0.0
2018-Apr-17 09:00N 53°20' E 007°11'0 0.0
2018-Apr-17 08:28N 53°20' E 007°11'0 0.0
2018-Apr-17 07:53N 53°20' E 007°11'0 0.0
2018-Apr-17 07:28N 53°20' E 007°11'0 0.0
2018-Apr-17 06:59N 53°20' E 007°11'0 0.0
2018-Apr-17 06:30N 53°20' E 007°11'0 0.0
2018-Apr-17 05:53N 53°20' E 007°11'0 0.0
2018-Apr-17 05:30N 53°20' E 007°11'0 0.0
2018-Apr-17 04:55N 53°20' E 007°11'0 0.0
2018-Apr-17 04:29N 53°20' E 007°11'0 0.0
2018-Apr-17 04:00N 53°20' E 007°11'0 0.0
2018-Apr-17 03:25N 53°20' E 007°11'0 0.0
2018-Apr-17 02:56N 53°20' E 007°11'0 0.0
2018-Apr-17 02:30N 53°20' E 007°11'0 0.0
2018-Apr-17 01:59N 53°20' E 007°11'0 0.0
2018-Apr-17 01:28N 53°20' E 007°11'0 0.0
2018-Apr-17 00:54N 53°20' E 007°11'0 0.0
2018-Apr-17 00:23N 53°20' E 007°11'0 0.0
2018-Apr-16 23:59N 53°20' E 007°11'0 0.0
2018-Apr-16 23:28N 53°20' E 007°11'0 0.0
2018-Apr-16 22:58N 53°20' E 007°11'0 0.0
2018-Apr-16 22:20N 53°20' E 007°11'0 0.0
2018-Apr-16 21:53N 53°20' E 007°11'0 0.0
2018-Apr-16 21:29N 53°20' E 007°11'0 0.0
2018-Apr-16 20:58N 53°20' E 007°11'0 0.0
2018-Apr-16 20:30N 53°20' E 007°11'0 0.0
2018-Apr-16 20:00N 53°20' E 007°11'0 0.0
2018-Apr-16 19:21N 53°20' E 007°11'0 0.0
2018-Apr-16 18:59N 53°20' E 007°11'0 0.0
2018-Apr-16 18:28N 53°20' E 007°11'0 0.0
2018-Apr-16 17:53N 53°20' E 007°11'0 0.0
2018-Apr-16 17:29N 53°20' E 007°11'0 0.0
2018-Apr-16 16:59N 53°20' E 007°11'0 0.0
2018-Apr-16 16:27N 53°20' E 007°11'0 0.0
2018-Apr-16 15:59N 53°20' E 007°11'0 0.0
2018-Apr-16 15:28N 53°20' E 007°11'0 0.0
2018-Apr-16 14:58N 53°20' E 007°11'0 0.0
2018-Apr-16 14:23N 53°20' E 007°11'0 0.0
2018-Apr-16 13:58N 53°20' E 007°11'0 0.0
2018-Apr-16 13:30N 53°20' E 007°11'0 0.0
2018-Apr-16 12:57N 53°20' E 007°11'0 0.0
2018-Apr-16 12:25N 53°20' E 007°11'0 0.0
2018-Apr-16 11:58N 53°20' E 007°11'0 0.0
2018-Apr-16 11:28N 53°20' E 007°11'0 0.0
2018-Apr-16 11:00N 53°20' E 007°11'0 0.0
2018-Apr-16 10:30N 53°20' E 007°11'0 0.0
2018-Apr-16 09:59N 53°20' E 007°11'0 0.0
2018-Apr-16 09:29N 53°20' E 007°11'0 0.0
2018-Apr-16 09:00N 53°20' E 007°11'0 0.0
2018-Apr-16 08:29N 53°20' E 007°11'0 0.0
2018-Apr-16 07:57N 53°20' E 007°11'0 0.0
2018-Apr-16 07:27N 53°20' E 007°11'0 0.0
2018-Apr-16 06:58N 53°20' E 007°11'0 0.0
2018-Apr-16 06:23N 53°20' E 007°11'0 0.0
2018-Apr-16 05:59N 53°20' E 007°11'0 0.0
2018-Apr-16 05:28N 53°20' E 007°11'0 0.0
2018-Apr-16 04:57N 53°20' E 007°11'0 0.0
2018-Apr-16 04:28N 53°20' E 007°11'0 0.0
2018-Apr-16 04:00N 53°20' E 007°11'0 0.0
2018-Apr-16 03:29N 53°20' E 007°11'0 0.0
2018-Apr-16 02:56N 53°20' E 007°11'0 0.0
2018-Apr-16 02:30N 53°20' E 007°11'0 0.0
2018-Apr-16 01:56N 53°20' E 007°11'0 0.0
2018-Apr-16 01:29N 53°20' E 007°11'0 0.0
2018-Apr-16 00:58N 53°20' E 007°11'0 0.0
2018-Apr-16 00:30N 53°20' E 007°11'0 0.0
2018-Apr-15 23:48N 53°20' E 007°11'0 0.0
2018-Apr-15 23:29N 53°20' E 007°11'0 0.0
2018-Apr-15 22:58N 53°20' E 007°11'0 0.0
2018-Apr-15 22:30N 53°20' E 007°11'0 0.0
2018-Apr-15 21:53N 53°20' E 007°11'0 0.0
2018-Apr-15 21:28N 53°20' E 007°11'0 0.0
2018-Apr-15 20:57N 53°20' E 007°11'0 0.0
2018-Apr-15 20:23N 53°20' E 007°11'0 0.0
2018-Apr-15 19:59N 53°20' E 007°11'0 0.0
2018-Apr-15 19:27N 53°20' E 007°11'0 0.0
2018-Apr-15 18:57N 53°20' E 007°11'0 0.0
2018-Apr-15 18:24N 53°20' E 007°11'0 0.0
2018-Apr-15 17:59N 53°20' E 007°11'0 0.0
2018-Apr-15 17:26N 53°20' E 007°11'0 0.0
2018-Apr-15 16:58N 53°20' E 007°11'0 0.0
2018-Apr-15 16:25N 53°20' E 007°11'0 0.0
2018-Apr-15 16:00N 53°20' E 007°11'0 0.0
2018-Apr-15 15:29N 53°20' E 007°11'0 0.0
2018-Apr-15 14:56N 53°20' E 007°11'0 0.0
2018-Apr-15 14:29N 53°20' E 007°11'0 0.1
2018-Apr-15 14:00N 53°20' E 007°11'1 2.6
2018-Apr-15 13:30N 53°20' E 007°09'2 3.9
2018-Apr-15 13:00N 53°20' E 007°06'4 8.9
2018-Apr-15 12:30N 53°22' E 006°59'713.3
2018-Apr-15 12:00N 53°27' E 006°53'815.0
2018-Apr-15 11:30N 53°32' E 006°43'815.3
2018-Apr-15 11:00N 53°37' E 006°33'3213.5
2018-Apr-15 08:39N 53°35' E 005°40'315.6
2018-Apr-15 08:29N 53°35' E 005°35'715.6
2018-Apr-15 08:01N 53°32' E 005°23'815.7
2018-Apr-15 07:31N 53°30' E 005°11'816.0
2018-Apr-15 07:00N 53°28' E 004°58'816.5
2018-Apr-15 06:30N 53°24' E 004°45'1116.9
2018-Apr-15 05:50N 53°15' E 004°35'617.0
2018-Apr-15 05:30N 53°10' E 004°30'816.4
2018-Apr-15 05:00N 53°03' E 004°24'816.3
2018-Apr-15 04:30N 52°55' E 004°19'816.2
2018-Apr-15 04:00N 52°48' E 004°12'1016.3
2018-Apr-15 03:24N 52°41' E 004°01'816.4
2018-Apr-15 02:55N 52°35' E 003°52'716.5
2018-Apr-15 02:30N 52°30' E 003°45'816.4
2018-Apr-15 02:00N 52°24' E 003°35'816.0
2018-Apr-15 01:29N 52°17' E 003°27'916.0
2018-Apr-15 00:55N 52°09' E 003°26'716.6
2018-Apr-15 00:30N 52°02' E 003°24'816.5
2018-Apr-14 23:59N 51°53' E 003°21'  
Track history (hours):
 
Tides and Currents Weather Stations Pressure Air Temp Water Temp Dewpoint Dewpoint Depression Visibility Wind Speed Wind Dir Waves Ship Positions

Lapis Arrow

Last reported at 2018-Apr-24 23:55 UTC. Time now 2018-Apr-26 07:41 UTC.
Position N 37°44' E 024°18'.

Length 176 m; draft 7.3 m.

Type: Cargo ship. MMSI: 308800800.

Date/timePositionNaut miles runAvg speedWind from/ knotsBaromVisibWave heightAir tempDewpointWater temp
2018-Apr-24 23:55N 37°44' E 024°18'919.0
2018-Apr-24 23:28N 37°37' E 024°12'3818.8
2018-Apr-24 21:28N 37°05' E 023°47'36217.8
2018-Apr-24 01:06N 36°28' E 016°17'219.5
2018-Apr-24 01:00N 36°28' E 016°15'1019.4
2018-Apr-24 00:28N 36°29' E 016°02'919.5
2018-Apr-24 00:00N 36°29' E 015°50'1019.2
2018-Apr-23 23:28N 36°29' E 015°37'918.8
2018-Apr-23 23:01N 36°28' E 015°27'1018.8
2018-Apr-23 22:30N 36°31' E 015°15'1019.5
2018-Apr-23 22:00N 36°32' E 015°03'1019.7
2018-Apr-23 21:31N 36°34' E 014°51'1019.6
2018-Apr-23 20:59N 36°36' E 014°39'1020.1
2018-Apr-23 20:28N 36°40' E 014°27'919.8
2018-Apr-23 20:01N 36°42' E 014°16'1019.5
2018-Apr-23 19:30N 36°45' E 014°04'1019.7
2018-Apr-23 19:00N 36°47' E 013°52'919.4
2018-Apr-23 18:30N 36°49' E 013°40'1019.0
2018-Apr-23 18:00N 36°51' E 013°29'1018.9
2018-Apr-23 17:30N 36°53' E 013°17'918.8
2018-Apr-23 17:00N 36°55' E 013°06'1019.0
2018-Apr-23 16:30N 36°57' E 012°54'919.1
2018-Apr-23 16:00N 36°59' E 012°42'919.1
2018-Apr-23 15:31N 37°01' E 012°31'1019.3
2018-Apr-23 15:00N 37°03' E 012°19'84318.4
2018-Apr-21 17:12N 35°59' W 005°08'418.9
2018-Apr-21 17:00N 35°59' W 005°12'919.1
2018-Apr-21 16:30N 35°58' W 005°24'26115.3
2018-Apr-20 23:27N 38°18' W 009°59'818.0
2018-Apr-20 23:00N 38°26' W 010°02'918.5
2018-Apr-20 22:30N 38°35' W 010°05'918.3
2018-Apr-20 22:00N 38°44' W 010°07'918.6
2018-Apr-20 21:30N 38°53' W 010°06'918.7
2018-Apr-20 21:00N 39°03' W 010°06'1019.0
2018-Apr-20 20:30N 39°12' W 010°06'54318.0
2018-Apr-19 14:20N 47°53' W 006°36'1018.0
2018-Apr-19 13:48N 48°02' W 006°29'5819.3
2018-Apr-19 10:48N 48°53' W 005°49'1918.8
2018-Apr-19 09:48N 49°04' W 005°26'1816.5
2018-Apr-19 08:42N 49°16' W 005°04'813.5
2018-Apr-19 08:07N 49°20' W 004°55'214.8
2018-Apr-19 07:58N 49°22' W 004°52'1215.8
2018-Apr-19 07:11N 49°29' W 004°37'315.6
2018-Apr-19 07:00N 49°31' W 004°34'815.7
2018-Apr-19 06:30N 49°36' W 004°25'815.9
2018-Apr-19 06:00N 49°42' W 004°16'816.5
2018-Apr-19 05:30N 49°47' W 004°06'917.2
2018-Apr-19 05:00N 49°53' W 003°56'918.1
2018-Apr-19 04:30N 49°59' W 003°45'1019.2
2018-Apr-19 04:00N 50°04' W 003°34'1019.2
2018-Apr-19 03:30N 50°13' W 003°27'1019.6
2018-Apr-19 03:00N 50°23' W 003°28'611.2
2018-Apr-19 02:30N 50°25' W 003°20'917.3
2018-Apr-19 02:00N 50°25' W 003°06'1019.2
2018-Apr-19 01:30N 50°25' W 002°51'918.8
2018-Apr-19 01:00N 50°25' W 002°36'917.8
2018-Apr-19 00:30N 50°25' W 002°22'1216.9
2018-Apr-18 23:48N 50°26' W 002°04'516.3
2018-Apr-18 23:30N 50°26' W 001°56'815.5
2018-Apr-18 23:00N 50°26' W 001°44'815.1
2018-Apr-18 22:30N 50°27' W 001°32'714.6
2018-Apr-18 22:00N 50°28' W 001°21'714.1
2018-Apr-18 21:30N 50°28' W 001°10'714.3
2018-Apr-18 21:00N 50°29' W 000°58'714.9
2018-Apr-18 20:30N 50°29' W 000°47'816.8
2018-Apr-18 20:00N 50°30' W 000°34'918.2
2018-Apr-18 19:30N 50°31' W 000°19'1019.3
2018-Apr-18 19:00N 50°31' W 000°04'1019.9
2018-Apr-18 18:30N 50°33' E 000°11'1020.4
2018-Apr-18 18:00N 50°36' E 000°27'1020.4
2018-Apr-18 17:30N 50°40' E 000°41'1020.0
2018-Apr-18 17:00N 50°45' E 000°55'1019.2
2018-Apr-18 16:28N 50°51' E 001°08'818.3
2018-Apr-18 16:00N 50°56' E 001°19'917.3
2018-Apr-18 15:30N 51°02' E 001°28'816.1
2018-Apr-18 15:00N 51°08' E 001°37'815.8
2018-Apr-18 14:30N 51°14' E 001°45'816.4
2018-Apr-18 14:00N 51°21' E 001°52'917.1
2018-Apr-18 13:30N 51°28' E 001°60'917.8
2018-Apr-18 13:00N 51°35' E 002°09'918.3
2018-Apr-18 12:30N 51°42' E 002°19'1019.2
2018-Apr-18 12:00N 51°49' E 002°29'1019.8
2018-Apr-18 11:30N 51°56' E 002°40'2320.1
2018-Apr-18 10:23N 52°14' E 003°02'920.1
2018-Apr-18 09:57N 52°21' E 003°11'3119.5
2018-Apr-18 08:21N 52°46' E 003°42'618.4
2018-Apr-18 08:00N 52°51' E 003°49'917.8
2018-Apr-18 07:30N 52°57' E 003°60'917.5
2018-Apr-18 07:00N 53°03' E 004°10'917.3
2018-Apr-18 06:30N 53°09' E 004°21'916.7
2018-Apr-18 05:59N 53°17' E 004°27'816.8
2018-Apr-18 05:30N 53°24' E 004°32'715.0
2018-Apr-18 05:00N 53°29' E 004°41'917.9
2018-Apr-18 04:30N 53°33' E 004°55'5216.7
2018-Apr-18 01:22N 53°37' E 006°23'617.6
2018-Apr-18 01:00N 53°37' E 006°34'918.1
2018-Apr-18 00:30N 53°31' E 006°46'816.2
2018-Apr-18 00:00N 53°26' E 006°56'714.2
2018-Apr-17 23:30N 53°19' E 007°01'510.9
2018-Apr-17 23:00N 53°20' E 007°10'0 0.5
2018-Apr-17 22:29N 53°20' E 007°11'0 0.0
2018-Apr-17 21:59N 53°20' E 007°11'0 0.0
2018-Apr-17 21:30N 53°20' E 007°11'0 0.0
2018-Apr-17 20:59N 53°20' E 007°11'0 0.0
2018-Apr-17 20:29N 53°20' E 007°11'0 0.0
2018-Apr-17 19:59N 53°20' E 007°11'0 0.0
2018-Apr-17 19:28N 53°20' E 007°11'0 0.0
2018-Apr-17 18:56N 53°20' E 007°11'0 0.0
2018-Apr-17 18:30N 53°20' E 007°11'0 0.0
2018-Apr-17 18:00N 53°20' E 007°11'0 0.0
2018-Apr-17 17:27N 53°20' E 007°11'0 0.0
2018-Apr-17 16:58N 53°20' E 007°11'0 0.0
2018-Apr-17 16:30N 53°20' E 007°11'0 0.0
2018-Apr-17 16:00N 53°20' E 007°11'0 0.0
2018-Apr-17 15:28N 53°20' E 007°11'0 0.0
2018-Apr-17 14:58N 53°20' E 007°11'0 0.0
2018-Apr-17 14:30N 53°20' E 007°11'0 0.0
2018-Apr-17 13:58N 53°20' E 007°11'0 0.0
2018-Apr-17 13:28N 53°20' E 007°11'0 0.0
2018-Apr-17 12:54N 53°20' E 007°11'0 0.0
2018-Apr-17 12:29N 53°20' E 007°11'0 0.0
2018-Apr-17 11:59N 53°20' E 007°11'0 0.0
2018-Apr-17 11:26N 53°20' E 007°11'0 0.0
2018-Apr-17 10:58N 53°20' E 007°11'0 0.0
2018-Apr-17 10:25N 53°20' E 007°11'0 0.0
2018-Apr-17 09:58N 53°20' E 007°11'0 0.0
2018-Apr-17 09:28N 53°20' E 007°11'0 0.0
2018-Apr-17 09:00N 53°20' E 007°11'0 0.0
2018-Apr-17 08:28N 53°20' E 007°11'0 0.0
2018-Apr-17 07:53N 53°20' E 007°11'0 0.0
2018-Apr-17 07:28N 53°20' E 007°11'0 0.0
2018-Apr-17 06:59N 53°20' E 007°11'0 0.0
2018-Apr-17 06:30N 53°20' E 007°11'0 0.0
2018-Apr-17 05:53N 53°20' E 007°11'0 0.0
2018-Apr-17 05:30N 53°20' E 007°11'0 0.0
2018-Apr-17 04:55N 53°20' E 007°11'0 0.0
2018-Apr-17 04:29N 53°20' E 007°11'0 0.0
2018-Apr-17 04:00N 53°20' E 007°11'0 0.0
2018-Apr-17 03:25N 53°20' E 007°11'0 0.0
2018-Apr-17 02:56N 53°20' E 007°11'0 0.0
2018-Apr-17 02:30N 53°20' E 007°11'0 0.0
2018-Apr-17 01:59N 53°20' E 007°11'0 0.0
2018-Apr-17 01:28N 53°20' E 007°11'0 0.0
2018-Apr-17 00:54N 53°20' E 007°11'0 0.0
2018-Apr-17 00:23N 53°20' E 007°11'0 0.0
2018-Apr-16 23:59N 53°20' E 007°11'0 0.0
2018-Apr-16 23:28N 53°20' E 007°11'0 0.0
2018-Apr-16 22:58N 53°20' E 007°11'0 0.0
2018-Apr-16 22:20N 53°20' E 007°11'0 0.0
2018-Apr-16 21:53N 53°20' E 007°11'0 0.0
2018-Apr-16 21:29N 53°20' E 007°11'0 0.0
2018-Apr-16 20:58N 53°20' E 007°11'0 0.0
2018-Apr-16 20:30N 53°20' E 007°11'0 0.0
2018-Apr-16 20:00N 53°20' E 007°11'0 0.0
2018-Apr-16 19:21N 53°20' E 007°11'0 0.0
2018-Apr-16 18:59N 53°20' E 007°11'0 0.0
2018-Apr-16 18:28N 53°20' E 007°11'0 0.0
2018-Apr-16 17:53N 53°20' E 007°11'0 0.0
2018-Apr-16 17:29N 53°20' E 007°11'0 0.0
2018-Apr-16 16:59N 53°20' E 007°11'0 0.0
2018-Apr-16 16:27N 53°20' E 007°11'0 0.0
2018-Apr-16 15:59N 53°20' E 007°11'0 0.0
2018-Apr-16 15:28N 53°20' E 007°11'0 0.0
2018-Apr-16 14:58N 53°20' E 007°11'0 0.0
2018-Apr-16 14:23N 53°20' E 007°11'0 0.0
2018-Apr-16 13:58N 53°20' E 007°11'0 0.0
2018-Apr-16 13:30N 53°20' E 007°11'0 0.0
2018-Apr-16 12:57N 53°20' E 007°11'0 0.0
2018-Apr-16 12:25N 53°20' E 007°11'0 0.0
2018-Apr-16 11:58N 53°20' E 007°11'0 0.0
2018-Apr-16 11:28N 53°20' E 007°11'0 0.0
2018-Apr-16 11:00N 53°20' E 007°11'0 0.0
2018-Apr-16 10:30N 53°20' E 007°11'0 0.0
2018-Apr-16 09:59N 53°20' E 007°11'0 0.0
2018-Apr-16 09:29N 53°20' E 007°11'0 0.0
2018-Apr-16 09:00N 53°20' E 007°11'0 0.0
2018-Apr-16 08:29N 53°20' E 007°11'0 0.0
2018-Apr-16 07:57N 53°20' E 007°11'0 0.0
2018-Apr-16 07:27N 53°20' E 007°11'0 0.0
2018-Apr-16 06:58N 53°20' E 007°11'0 0.0
2018-Apr-16 06:23N 53°20' E 007°11'0 0.0
2018-Apr-16 05:59N 53°20' E 007°11'0 0.0
2018-Apr-16 05:28N 53°20' E 007°11'0 0.0
2018-Apr-16 04:57N 53°20' E 007°11'0 0.0
2018-Apr-16 04:28N 53°20' E 007°11'0 0.0
2018-Apr-16 04:00N 53°20' E 007°11'0 0.0
2018-Apr-16 03:29N 53°20' E 007°11'0 0.0
2018-Apr-16 02:56N 53°20' E 007°11'0 0.0
2018-Apr-16 02:30N 53°20' E 007°11'0 0.0
2018-Apr-16 01:56N 53°20' E 007°11'0 0.0
2018-Apr-16 01:29N 53°20' E 007°11'0 0.0
2018-Apr-16 00:58N 53°20' E 007°11'0 0.0
2018-Apr-16 00:30N 53°20' E 007°11'0 0.0
2018-Apr-15 23:48N 53°20' E 007°11'0 0.0
2018-Apr-15 23:29N 53°20' E 007°11'0 0.0
2018-Apr-15 22:58N 53°20' E 007°11'0 0.0
2018-Apr-15 22:30N 53°20' E 007°11'0 0.0
2018-Apr-15 21:53N 53°20' E 007°11'0 0.0
2018-Apr-15 21:28N 53°20' E 007°11'0 0.0
2018-Apr-15 20:57N 53°20' E 007°11'0 0.0
2018-Apr-15 20:23N 53°20' E 007°11'0 0.0
2018-Apr-15 19:59N 53°20' E 007°11'0 0.0
2018-Apr-15 19:27N 53°20' E 007°11'0 0.0
2018-Apr-15 18:57N 53°20' E 007°11'0 0.0
2018-Apr-15 18:24N 53°20' E 007°11'0 0.0
2018-Apr-15 17:59N 53°20' E 007°11'0 0.0
2018-Apr-15 17:26N 53°20' E 007°11'0 0.0
2018-Apr-15 16:58N 53°20' E 007°11'0 0.0
2018-Apr-15 16:25N 53°20' E 007°11'0 0.0
2018-Apr-15 16:00N 53°20' E 007°11'0 0.0
2018-Apr-15 15:29N 53°20' E 007°11'0 0.0
2018-Apr-15 14:56N 53°20' E 007°11'0 0.0
2018-Apr-15 14:29N 53°20' E 007°11'0 0.1
2018-Apr-15 14:00N 53°20' E 007°11'1 2.6
2018-Apr-15 13:30N 53°20' E 007°09'2 3.9
2018-Apr-15 13:00N 53°20' E 007°06'4 8.9
2018-Apr-15 12:30N 53°22' E 006°59'713.3
2018-Apr-15 12:00N 53°27' E 006°53'815.0
2018-Apr-15 11:30N 53°32' E 006°43'815.3
2018-Apr-15 11:00N 53°37' E 006°33'3213.5
2018-Apr-15 08:39N 53°35' E 005°40'315.6
2018-Apr-15 08:29N 53°35' E 005°35'715.6
2018-Apr-15 08:01N 53°32' E 005°23'815.7
2018-Apr-15 07:31N 53°30' E 005°11'816.0
2018-Apr-15 07:00N 53°28' E 004°58'816.5
2018-Apr-15 06:30N 53°24' E 004°45'1116.9
2018-Apr-15 05:50N 53°15' E 004°35'617.0
2018-Apr-15 05:30N 53°10' E 004°30'816.4
2018-Apr-15 05:00N 53°03' E 004°24'816.3
2018-Apr-15 04:30N 52°55' E 004°19'816.2
2018-Apr-15 04:00N 52°48' E 004°12'1016.3
2018-Apr-15 03:24N 52°41' E 004°01'816.4
2018-Apr-15 02:55N 52°35' E 003°52'716.5
2018-Apr-15 02:30N 52°30' E 003°45'816.4
2018-Apr-15 02:00N 52°24' E 003°35'816.0
2018-Apr-15 01:29N 52°17' E 003°27'916.0
2018-Apr-15 00:55N 52°09' E 003°26'716.6
2018-Apr-15 00:30N 52°02' E 003°24'816.5
2018-Apr-14 23:59N 51°53' E 003°21'  

Dump ship's entire track history